AALBORG current weather conditions

sailwx.info

Wind from 220 at 18 knots gusting 28

Air temperature 6.0° C
Visibility: greater than 3.2 NM
Dewpoint 4.0° C
Present weather: Light rain showers.

Last reported at 2019-Dec-08 22:54 UTC.
Time now 2019-Dec-09 00:26 UTC

Location: N 57°06' E 009°52'.
View on Google Maps.

See reports from other nearby stations

  
Tides and Currents Weather Stations Pressure Air Temp Water Temp Dewpoint Dewpoint Depression Visibility Wind Speed Wind Dir Waves Ship Positions
date/time (UTC)wind fromknots sea level pressurealtimeterstation pressurevisibilityair tempwater tempwave heightnotes
2019-Dec-08 23:50 230 14 3.8 5.0 Rain.
2019-Dec-08 23:36 230 17 1.9 5.0 Rain.
2019-Dec-08 23:34 230 17 2.5 5.0 Light rain.
2019-Dec-08 23:33 230 17 2.6 5.0 Light rain.
2019-Dec-08 23:30 230 17 3.2 5.0 Light rain.
2019-Dec-08 23:29 230 17 3.8 5.0 Light rain.
2019-Dec-08 23:20 240 18 4.3 5.0 Rain.
2019-Dec-08 23:09 240 17 3.8 5.0 Rain.
2019-Dec-08 23:08 240 17 3.8 5.0 Rain.
2019-Dec-08 22:54 220 18 gusting 28 3.2 6.0 Light rain showers.
2019-Dec-08 22:53 220 17 gusting 27 3.8 6.0 Light rain showers.
2019-Dec-08 22:52 220 17 gusting 27 4.3 6.0 Light rain showers.
2019-Dec-08 22:51 220 17 gusting 27 4.9 6.0 Light rain showers.
2019-Dec-08 22:50 220 15 5.4 6.0 Light rain showers.
2019-Dec-08 22:20 240 15 2.6 5.0 Rain.
2019-Dec-08 22:18 240 17 2.6 5.0 Rain.
2019-Dec-08 22:17 240 17 2.6 5.0 Rain.
2019-Dec-08 22:13 250 17 gusting 27 2.6 5.0 Rain.
2019-Dec-08 22:11 250 17 gusting 27 2.6 5.0 Rain.
2019-Dec-08 22:08 250 15 gusting 27 2.6 5.0 Rain.
2019-Dec-08 22:05 240 14 gusting 27 2.7 5.0 Rain.
2019-Dec-08 21:59 240 12 3.8 6.0 Rain.
2019-Dec-08 21:50 220 12 5.4 6.0 Light rain showers.
2019-Dec-08 21:20 230 13 4.9 6.0 Light rain showers.
2019-Dec-08 21:15 230 14 3.8 6.0 Light rain showers.
2019-Dec-08 21:14 230 14 3.8 6.0 Light rain showers.
2019-Dec-08 20:50 230 17 5.4 6.0 Light rain showers.
2019-Dec-08 20:34 220 15 gusting 28 3.8 6.0 Rain.
2019-Dec-08 20:33 220 15 gusting 28 4.9 6.0 Light rain.
2019-Dec-08 20:32 220 14 gusting 27 5.4 6.0 Light rain.
2019-Dec-08 20:20 220 13 5.4 6.0
2019-Dec-08 19:50 230 17 5.4 6.0
2019-Dec-08 19:20 220 14 5.4 6.0 Light rain showers.
2019-Dec-08 18:50 240 20 5.4 6.0 Light rain.
2019-Dec-08 18:20 220 15 5.4 6.0
2019-Dec-08 17:50 220 13 5.4 6.0
2019-Dec-08 17:20 240 18 gusting 27 5.4 6.0 Light rain showers.
2019-Dec-08 17:09 230 15 gusting 31 5.4 7.0 Light rain showers.
2019-Dec-08 17:08 230 15 gusting 31 5.4 7.0
2019-Dec-08 16:50 250 19 5.4 7.0 Light rain showers.
2019-Dec-08 16:24 240 15 gusting 28 5.4 7.0 Light rain showers.
2019-Dec-08 16:23 240 15 gusting 28 5.4 7.0 Light rain showers.
2019-Dec-08 16:20 240 14 5.4 7.0 Light rain showers.
2019-Dec-08 15:50 240 15 5.4 7.0
2019-Dec-08 15:20 250 19 5.4 7.0 Light rain showers.
2019-Dec-08 14:58 240 19 gusting 35 1.6 7.0 Rain showers.
2019-Dec-08 14:57 230 18 gusting 35 4.9 7.0 Light rain showers.
2019-Dec-08 14:50 240 17 5.4 7.0
2019-Dec-08 14:20 250 20 5.4 7.0 Light rain showers.
2019-Dec-08 13:55 250 20 4.3 8.0 Rain showers.
2019-Dec-08 13:50 250 20 5.4 8.0
2019-Dec-08 13:27 250 21 gusting 33 3.8 8.0 Rain.
2019-Dec-08 13:20 250 20 gusting 33 3.2 8.0 Light rain.
2019-Dec-08 13:17 250 19 gusting 32 3.8 8.0 Light rain.
2019-Dec-08 13:15 250 18 5.4 8.0 Rain.
2019-Dec-08 12:50 250 19 5.4 8.0
2019-Dec-08 12:20 250 19 5.4 9.0
2019-Dec-08 11:50 250 21 5.4 9.0
2019-Dec-08 11:20 250 24 5.4 9.0
2019-Dec-08 10:50 250 21 5.4 9.0
2019-Dec-08 10:20 230 21 1.7 9.0 Light rain.
2019-Dec-08 10:07 230 20 1.6 9.0 Drizzle.
2019-Dec-08 09:59 230 20 2.6 9.0 Drizzle.
2019-Dec-08 09:50 230 21 3.8 9.0 Drizzle.
2019-Dec-08 09:20 220 20 2.7 9.0 Drizzle.
2019-Dec-08 09:01 220 21 2.7 9.0 Drizzle.
2019-Dec-08 09:00 220 21 2.7 9.0 Drizzle.
2019-Dec-08 08:50 220 21 3.8 9.0 Drizzle.
2019-Dec-08 08:35 220 22 3.8 9.0 Drizzle.
2019-Dec-08 08:20 220 21 1.3 9.0 Light drizzle. Mist.
2019-Dec-08 08:19 220 21 1.6 9.0 Light drizzle. Mist.
2019-Dec-08 08:11 220 20 1.6 9.0 Light drizzle. Mist.
2019-Dec-08 08:09 220 20 2.6 9.0 Drizzle. Mist.
2019-Dec-08 08:01 220 22 2.7 9.0 Drizzle.
2019-Dec-08 08:00 220 22 2.7 9.0 Drizzle.
2019-Dec-08 07:50 220 20 3.2 9.0 Drizzle.
2019-Dec-08 07:37 210 20 3.2 9.0 Drizzle.
2019-Dec-08 07:21 210 20 2.2 9.0 Rain.
2019-Dec-08 06:51 210 21 2.7 9.0 Rain.
2019-Dec-08 05:50 210 21 2.7 9.0 Light rain.
2019-Dec-08 05:44 210 21 gusting 34 2.7 9.0 Light rain.
2019-Dec-08 05:20 210 19 4.3 8.0 Light drizzle.
2019-Dec-08 04:50 200 15 5.4 8.0 Light drizzle.
2019-Dec-08 04:20 190 15 3.8 8.0 Rain.
2019-Dec-08 03:50 180 12 5.4 7.0 Rain.
2019-Dec-08 03:45 180 13 5.4 7.0 Rain.
2019-Dec-08 03:20 180 11 3.8 7.0 Light rain.
2019-Dec-08 03:19 180 11 3.8 7.0 Light rain.
2019-Dec-08 03:18 180 11 3.8 7.0 Light rain.
2019-Dec-08 02:50 170 8 5.4 6.0 Light rain.
2019-Dec-08 01:50 170 8 5.4 6.0 Light rain.
2019-Dec-08 01:20 170 9 5.4 5.0 Light drizzle.
2019-Dec-08 00:50 170 8 5.4 5.0 Light drizzle.
2019-Dec-08 00:20 190 8 4.3 5.0
2019-Dec-08 00:18 190 8 3.8 5.0
2019-Dec-08 00:17 190 8 3.8 5.0
2019-Dec-07 23:50 190 7 5.4 5.0
2019-Dec-07 23:20 200 6 5.4 5.0
2019-Dec-07 22:50 190 2 5.4 4.0
2019-Dec-07 22:20 180 2 5.4 3.0
2019-Dec-07 21:50 200 6 5.4 4.0
2019-Dec-07 21:20 200 6 5.4 3.0
2019-Dec-07 20:50 220 6 5.4 4.0
2019-Dec-07 20:20 250 8 5.4 4.0
2019-Dec-07 19:50 250 11 5.4 4.0
2019-Dec-07 19:20 250 7 5.4 5.0
2019-Dec-07 18:50 270 6 5.4 4.0
2019-Dec-07 18:20 270 7 5.4 5.0
2019-Dec-07 17:50 270 8 5.4 5.0
2019-Dec-07 17:20 290 6 5.4 5.0
2019-Dec-07 16:50 280 7 5.4 5.0
2019-Dec-07 16:20 280 11 5.4 5.0
2019-Dec-07 15:50 270 12 5.4 5.0
2019-Dec-07 15:20 270 13 5.4 5.0
2019-Dec-07 14:50 270 13 5.4 5.0
2019-Dec-07 14:20 280 15 5.4 6.0
2019-Dec-07 14:07 270 15 gusting 27 5.4 6.0
2019-Dec-07 13:50 280 15 5.4 6.0
2019-Dec-07 13:20 280 15 5.4 6.0
2019-Dec-07 12:50 280 17 5.4 6.0
2019-Dec-07 12:20 280 17 5.4 6.0
2019-Dec-07 11:55 280 18 gusting 28 5.4 6.0
2019-Dec-07 11:50 280 19 5.4 6.0
2019-Dec-07 11:20 280 17 5.4 7.0
2019-Dec-07 11:08 280 20 gusting 31 5.4 7.0
2019-Dec-07 11:07 280 19 gusting 31 5.4 7.0
2019-Dec-07 10:54 280 17 gusting 28 5.4 7.0
2019-Dec-07 10:50 290 17 5.4 7.0
2019-Dec-07 10:20 280 15 gusting 26 5.4 7.0
2019-Dec-07 09:50 280 15 5.4 7.0
2019-Dec-07 09:22 280 20 gusting 33 5.4 7.0
2019-Dec-07 09:21 280 20 gusting 33 5.4 7.0
2019-Dec-07 09:20 280 19 5.4 7.0
2019-Dec-07 09:09 280 18 gusting 28 5.4 7.0
2019-Dec-07 09:06 280 18 gusting 28 5.4 7.0
2019-Dec-07 09:05 280 18 gusting 28 5.4 7.0
2019-Dec-07 08:57 280 20 gusting 31 5.4 7.0
2019-Dec-07 08:50 280 21 5.4 7.0
2019-Dec-07 08:20 290 20 5.4 7.0
2019-Dec-07 07:50 290 18 gusting 32 5.4 7.0
2019-Dec-07 07:44 280 18 gusting 32 5.4 7.0
2019-Dec-07 07:43 280 18 gusting 28 5.4 7.0
2019-Dec-07 07:20 290 18 gusting 28 5.4 7.0
2019-Dec-07 07:18 290 18 gusting 28 5.4 6.0
2019-Dec-07 07:17 290 19 gusting 29 5.4 6.0
2019-Dec-07 07:16 290 19 gusting 29 5.4 6.0
2019-Dec-07 07:08 290 19 gusting 29 5.4 7.0
2019-Dec-07 07:07 290 18 gusting 29 5.4 7.0
2019-Dec-07 07:03 290 18 gusting 28 5.4 7.0
2019-Dec-07 06:52 290 19 gusting 34 5.4 7.0
2019-Dec-07 06:50 290 18 gusting 27 5.4 7.0
2019-Dec-07 06:44 280 20 gusting 32 5.4 6.0
2019-Dec-07 06:43 280 20 gusting 32 5.4 7.0
2019-Dec-07 06:37 280 20 gusting 32 5.4 7.0
2019-Dec-07 06:36 280 20 gusting 32 5.4 7.0
2019-Dec-07 06:23 280 20 gusting 31 5.4 7.0
2019-Dec-07 06:20 280 20 gusting 31 5.4 7.0
2019-Dec-07 06:16 280 20 gusting 31 5.4 7.0
2019-Dec-07 06:15 280 20 gusting 31 5.4 7.0
2019-Dec-07 06:11 280 20 gusting 31 5.4 7.0
2019-Dec-07 06:10 280 20 gusting 31 5.4 7.0
2019-Dec-07 06:08 280 20 gusting 31 5.4 7.0
2019-Dec-07 05:50 290 19 5.4 7.0
2019-Dec-07 05:33 290 15 gusting 27 5.4 7.0
2019-Dec-07 05:32 290 15 gusting 27 5.4 7.0
2019-Dec-07 05:30 290 14 gusting 26 5.4 7.0
2019-Dec-07 05:20 290 18 gusting 29 5.4 7.0
2019-Dec-07 05:12 290 17 gusting 29 5.4 7.0
2019-Dec-07 04:50 280 15 5.4 7.0 Light drizzle.
2019-Dec-07 04:20 280 14 2.2 7.0 Light drizzle.
2019-Dec-07 03:50 280 14 5.4 8.0
2019-Dec-07 03:35 280 14 5.4 8.0
2019-Dec-07 03:20 280 13 gusting 27 5.4 8.0
2019-Dec-07 02:50 270 8 5.4 8.0
2019-Dec-07 02:20 250 12 1.6 8.0 Light rain. Mist.
2019-Dec-07 02:16 250 13 1.5 8.0 Light rain. Mist.
2019-Dec-07 02:15 250 13 1.6 8.0 Light rain. Mist.
2019-Dec-07 01:51 250 13 1.5 8.0 Light rain.
2019-Dec-07 01:50 250 13 1.6 8.0 Light rain.
2019-Dec-07 01:44 250 13 2.6 8.0 Light rain showers. Mist.
2019-Dec-07 01:20 240 14 1.6 8.0 Light rain showers.
2019-Dec-07 01:15 240 14 2.4 8.0 Light rain showers.
2019-Dec-07 00:54 240 13 2.5 8.0 Light rain showers. Mist.
2019-Dec-07 00:50 240 13 3.2 8.0 Light rain showers.
2019-Dec-07 00:35 240 13 2.6 9.0 Mist.
2019-Dec-07 00:32 240 12 3.2 9.0
2019-Dec-07 00:31 240 12 3.8 9.0
2019-Dec-07 00:21 240 13 5.4 9.0 Light rain showers.
2019-Dec-07 00:20 240 13 5.4 9.0 Light rain showers.